^^
**For data prior to May 25, 2012 you must select 'Medfield' from the drop down list. This station relocated from Medfield to Millis in May 2012, less than 5 miles distant. For current data select 'Millis' from the dropdown list.
Medfield, MA Historical Weather Data
Daily Summary for March 19, 2012 Units:  English    Metric   Both
« Previous Day
Next Day »
Daily Weekly Monthly Yearly Custom
  High: Low: Average:
Temperature: 82.7 °F 41.2 °F 56.6 °F
Dew Point: 56.7 °F 40.1 °F 45.6 °F
Humidity: 97% 28% 73%
Wind Speed: 4.3mph 0.1mph 1.4mph
Wind Gust: 11.0mph - -
Wind- - South
Pressure: 30.31 in 30.15 in -
Precipitation: 0.00 in    
Historical Graphs
 
 
Tabular Data for March 19, 2012
Time Temperature Dew Point Pressure Wind Wind Speed Wind Gust Humidity Rainfall Rate (Hourly)
00:00 46.2 °F 45.4 °F 30.19 in SSE 1.4 mph 2.3 mph 97% 0.00 in
00:05 45.6 °F 44.8 °F 30.19 in SSE 1.2 mph 2.3 mph 97% 0.00 in
00:10 45.4 °F 44.6 °F 30.19 in SSE 1.9 mph 2.3 mph 97% 0.00 in
00:15 45.2 °F 44.4 °F 30.19 in SSE 1.7 mph 2.3 mph 97% 0.00 in
00:20 44.8 °F 43.7 °F 30.19 in SSE 1.6 mph 2.3 mph 96% 0.00 in
00:25 44.8 °F 43.7 °F 30.19 in SSE 1.7 mph 2.3 mph 96% 0.00 in
00:30 44.4 °F 43.3 °F 30.18 in South 1.6 mph 2.3 mph 96% 0.00 in
00:36 44.3 °F 43.2 °F 30.18 in SSE 1.2 mph 2.3 mph 96% 0.00 in
00:41 44.9 °F 43.8 °F 30.18 in SE 1.5 mph 2.3 mph 96% 0.00 in
00:46 44.9 °F 43.8 °F 30.18 in SE 1.1 mph 2.3 mph 96% 0.00 in
00:51 45.4 °F 44.6 °F 30.18 in SE 1.6 mph 2.3 mph 97% 0.00 in
00:56 45.1 °F 44.3 °F 30.18 in SSE 1.6 mph 2.3 mph 97% 0.00 in
01:01 44.7 °F 43.6 °F 30.17 in SSE 1.8 mph 2.3 mph 96% 0.00 in
01:06 44.2 °F 43.1 °F 30.17 in SSE 1.2 mph 2.3 mph 96% 0.00 in
01:11 43.6 °F 42.5 °F 30.17 in SSE 1.8 mph 2.3 mph 96% 0.00 in
01:16 43.2 °F 42.1 °F 30.17 in SSE 1.8 mph 2.3 mph 96% 0.00 in
01:21 43.3 °F 42.2 °F 30.17 in SSE 1.2 mph 2.3 mph 96% 0.00 in
01:26 43.9 °F 42.8 °F 30.17 in SSE 1.4 mph 2.3 mph 96% 0.00 in
01:31 44.4 °F 43.3 °F 30.17 in SSE 1.8 mph 2.3 mph 96% 0.00 in
01:36 44.4 °F 43.3 °F 30.17 in SSE 1.0 mph 2.3 mph 96% 0.00 in
01:41 44.4 °F 43.3 °F 30.17 in SSE 1.8 mph 2.3 mph 96% 0.00 in
01:46 44.3 °F 43.2 °F 30.17 in Calm     96% 0.00 in
01:51 44.0 °F 42.9 °F 30.17 in SSE 0.3 mph 1.0 mph 96% 0.00 in
01:56 43.6 °F 42.5 °F 30.17 in SSE 1.5 mph 2.3 mph 96% 0.00 in
02:01 43.2 °F 42.1 °F 30.17 in SSE 0.9 mph 2.3 mph 96% 0.00 in
02:06 43.1 °F 42.0 °F 30.17 in Calm   1.1 mph 96% 0.00 in
02:11 43.0 °F 41.9 °F 30.17 in SSE 1.3 mph 2.3 mph 96% 0.00 in
02:16 43.1 °F 42.0 °F 30.17 in SSE 1.5 mph 2.3 mph 96% 0.00 in
02:21 43.2 °F 42.1 °F 30.17 in SSE 0.6 mph 2.3 mph 96% 0.00 in
02:26 42.8 °F 41.7 °F 30.17 in SSE 1.7 mph 2.3 mph 96% 0.00 in
02:31 42.5 °F 41.4 °F 30.17 in SSE 1.2 mph 2.3 mph 96% 0.00 in
02:36 42.8 °F 41.7 °F 30.17 in SSW 1.6 mph 2.3 mph 96% 0.00 in
02:41 43.7 °F 42.6 °F 30.16 in SSE 1.7 mph 2.3 mph 96% 0.00 in
02:46 44.4 °F 43.3 °F 30.16 in SSE 1.3 mph 2.3 mph 96% 0.00 in
02:51 44.9 °F 43.8 °F 30.16 in SSE 1.5 mph 2.3 mph 96% 0.00 in
02:56 44.9 °F 43.8 °F 30.16 in SSE 1.2 mph 2.3 mph 96% 0.00 in
03:01 44.9 °F 43.8 °F 30.16 in SSE 1.7 mph 2.3 mph 96% 0.00 in
03:06 44.7 °F 43.6 °F 30.16 in Calm     96% 0.00 in
03:11 44.9 °F 43.8 °F 30.16 in SSE 0.8 mph 1.1 mph 96% 0.00 in
03:16 45.4 °F 44.6 °F 30.16 in SE 0.2 mph 1.1 mph 97% 0.00 in
03:21 45.4 °F 44.6 °F 30.15 in Calm   2.3 mph 97% 0.00 in
03:26 44.8 °F 43.7 °F 30.16 in Calm     96% 0.00 in
03:31 44.2 °F 43.1 °F 30.16 in Calm     96% 0.00 in
03:36 43.9 °F 42.8 °F 30.16 in Calm     96% 0.00 in
03:41 43.8 °F 42.7 °F 30.16 in Calm     96% 0.00 in
03:46 43.2 °F 42.1 °F 30.16 in SE 0.6 mph 1.1 mph 96% 0.00 in
03:51 43.0 °F 41.9 °F 30.16 in SE 1.4 mph 2.3 mph 96% 0.00 in
03:56 42.8 °F 41.7 °F 30.15 in SE 0.6 mph 1.1 mph 96% 0.00 in
04:01 42.7 °F 41.6 °F 30.15 in SE 1.2 mph 2.3 mph 96% 0.00 in
04:06 42.7 °F 41.6 °F 30.15 in Calm     96% 0.00 in
04:11 42.3 °F 41.2 °F 30.15 in Calm     96% 0.00 in
04:16 42.1 °F 41.0 °F 30.15 in Calm   1.1 mph 96% 0.00 in
04:21 41.9 °F 40.8 °F 30.15 in Calm     96% 0.00 in
04:26 41.7 °F 40.6 °F 30.15 in Calm     96% 0.00 in
04:31 41.6 °F 40.5 °F 30.15 in Calm     96% 0.00 in
04:36 41.7 °F 40.6 °F 30.15 in Calm     96% 0.00 in
04:41 41.8 °F 40.7 °F 30.15 in SE 1.0 mph 2.3 mph 96% 0.00 in
04:46 41.7 °F 40.6 °F 30.15 in SE 1.0 mph 2.3 mph 96% 0.00 in
04:51 41.5 °F 40.4 °F 30.16 in Calm     96% 0.00 in
04:56 41.6 °F 40.5 °F 30.16 in SE 0.6 mph 1.1 mph 96% 0.00 in
05:01 41.5 °F 40.4 °F 30.16 in Calm     96% 0.00 in
05:06 41.4 °F 40.3 °F 30.16 in Calm     96% 0.00 in
05:11 41.4 °F 40.3 °F 30.16 in Calm   1.1 mph 96% 0.00 in
05:16 41.8 °F 40.7 °F 30.16 in SE 1.3 mph 2.3 mph 96% 0.00 in
05:21 41.7 °F 40.6 °F 30.16 in South 1.0 mph 2.3 mph 96% 0.00 in
05:26 41.6 °F 40.5 °F 30.16 in Calm     96% 0.00 in
05:31 41.6 °F 40.5 °F 30.16 in South 0.7 mph 2.3 mph 96% 0.00 in
05:36 41.8 °F 40.7 °F 30.17 in South 1.1 mph 2.3 mph 96% 0.00 in
05:41 41.6 °F 40.5 °F 30.17 in South 1.2 mph 2.0 mph 96% 0.00 in
05:46 41.5 °F 40.4 °F 30.17 in Calm     96% 0.00 in
05:51 41.5 °F 40.4 °F 30.17 in South 1.6 mph 2.3 mph 96% 0.00 in
05:56 41.4 °F 40.3 °F 30.17 in South 1.2 mph 2.3 mph 96% 0.00 in
06:01 41.4 °F 40.3 °F 30.16 in South 0.1 mph 1.1 mph 96% 0.00 in
06:06 41.5 °F 40.4 °F 30.17 in Calm   1.1 mph 96% 0.00 in
06:11 41.9 °F 40.8 °F 30.17 in Calm     96% 0.00 in
06:16 42.4 °F 41.3 °F 30.17 in Calm     96% 0.00 in
06:21 42.6 °F 41.5 °F 30.17 in South 1.0 mph 2.3 mph 96% 0.00 in
06:26 41.9 °F 40.8 °F 30.17 in South 1.0 mph 2.3 mph 96% 0.00 in
06:31 41.8 °F 40.7 °F 30.17 in SSE 1.0 mph 2.3 mph 96% 0.00 in
06:36 41.8 °F 40.7 °F 30.17 in Calm     96% 0.00 in
06:41 41.6 °F 40.5 °F 30.17 in Calm     96% 0.00 in
06:46 41.4 °F 40.3 °F 30.17 in SSE 1.8 mph 2.3 mph 96% 0.00 in
06:51 41.2 °F 40.1 °F 30.17 in SSE 1.0 mph 2.3 mph 96% 0.00 in
06:56 41.5 °F 40.4 °F 30.17 in SSE 0.6 mph 1.1 mph 96% 0.00 in
07:01 41.8 °F 40.7 °F 30.17 in SSE 0.4 mph 1.1 mph 96% 0.00 in
07:06 42.1 °F 41.0 °F 30.17 in Calm     96% 0.00 in
07:11 42.3 °F 41.2 °F 30.17 in SSE 0.5 mph 1.1 mph 96% 0.00 in
07:16 42.4 °F 41.3 °F 30.17 in SSE 0.8 mph 2.0 mph 96% 0.00 in
07:21 42.4 °F 41.3 °F 30.17 in SSE 0.5 mph 1.1 mph 96% 0.00 in
07:26 42.5 °F 41.4 °F 30.17 in SSE 0.7 mph 2.3 mph 96% 0.00 in
07:31 42.8 °F 41.7 °F 30.17 in Calm   1.1 mph 96% 0.00 in
07:36 43.2 °F 42.1 °F 30.17 in SSE 0.3 mph 1.1 mph 96% 0.00 in
07:41 43.8 °F 42.7 °F 30.17 in SSE 0.6 mph 2.3 mph 96% 0.00 in
07:46 44.1 °F 43.0 °F 30.17 in SSE 1.2 mph 2.3 mph 96% 0.00 in
07:47 44.1 °F 43.0 °F 30.17 in SSE 1.2 mph 2.3 mph 96% 0.00 in
07:52 44.7 °F 43.6 °F 30.18 in SSE 0.1 mph 1.1 mph 96% 0.00 in
07:57 45.7 °F 44.9 °F 30.18 in Calm     97% 0.00 in
08:02 46.6 °F 45.8 °F 30.18 in Calm     97% 0.00 in
08:07 47.5 °F 46.7 °F 30.18 in Calm     97% 0.00 in
08:12 48.6 °F 47.8 °F 30.19 in Calm     97% 0.00 in
08:17 49.0 °F 48.2 °F 30.19 in Calm     97% 0.00 in
08:22 49.6 °F 48.8 °F 30.19 in Calm     97% 0.00 in
08:27 50.5 °F 49.7 °F 30.19 in Calm     97% 0.00 in
08:32 50.9 °F 50.1 °F 30.19 in South 0.5 mph 2.3 mph 97% 0.00 in
08:37 51.5 °F 50.7 °F 30.20 in South 1.0 mph 2.3 mph 97% 0.00 in
08:42 51.9 °F 51.1 °F 30.20 in Calm   1.1 mph 97% 0.00 in
08:47 52.4 °F 51.6 °F 30.20 in WNW 0.5 mph 2.3 mph 97% 0.00 in
08:52 53.2 °F 52.4 °F 30.21 in Calm   1.1 mph 97% 0.00 in
08:57 54.4 °F 53.6 °F 30.21 in Calm     97% 0.00 in
09:02 55.4 °F 52.8 °F 30.21 in West 0.1 mph 1.1 mph 91% 0.00 in
09:07 56.3 °F 53.7 °F 30.21 in NW 0.8 mph 3.0 mph 91% 0.00 in
09:12 57.0 °F 52.9 °F 30.21 in South 0.5 mph 2.3 mph 86% 0.00 in
09:17 57.9 °F 54.7 °F 30.22 in NW 0.8 mph 2.0 mph 89% 0.00 in
09:22 58.6 °F 52.8 °F 30.22 in SSW 0.8 mph 2.3 mph 81% 0.00 in
09:27 59.4 °F 52.5 °F 30.23 in WNW 1.3 mph 2.3 mph 78% 0.00 in
09:32 60.3 °F 53.1 °F 30.23 in WNW 1.4 mph 2.3 mph 77% 0.00 in
09:37 60.9 °F 56.7 °F 30.23 in SSW 0.1 mph 1.1 mph 86% 0.00 in
09:42 61.9 °F 53.1 °F 30.23 in Calm     73% 0.00 in
09:47 62.9 °F 54.9 °F 30.23 in NW 0.7 mph 2.3 mph 75% 0.00 in
09:52 63.6 °F 54.0 °F 30.24 in NW 0.8 mph 3.4 mph 71% 0.00 in
09:57 64.0 °F 54.8 °F 30.24 in West 1.2 mph 1.2 mph 72% 0.00 in
10:02 64.6 °F 55.7 °F 30.24 in SW 1.1 mph 2.3 mph 73% 0.00 in
10:07 65.7 °F 53.6 °F 30.25 in NNW 1.2 mph 2.3 mph 65% 0.00 in
10:12 66.6 °F 55.7 °F 30.25 in South 1.0 mph 2.3 mph 68% 0.00 in
10:17 67.3 °F 52.0 °F 30.25 in West 1.1 mph 2.3 mph 58% 0.00 in
10:22 67.9 °F 52.6 °F 30.25 in WNW 0.7 mph 2.3 mph 58% 0.00 in
10:27 68.6 °F 52.3 °F 30.25 in WNW 0.7 mph 2.3 mph 56% 0.00 in
10:32 69.5 °F 52.1 °F 30.25 in West 1.1 mph 2.3 mph 54% 0.00 in
10:37 70.1 °F 51.7 °F 30.25 in NE 1.4 mph 2.3 mph 52% 0.00 in
10:42 70.4 °F 52.4 °F 30.25 in NW 2.1 mph 2.3 mph 53% 0.00 in
10:47 70.9 °F 50.8 °F 30.26 in SW 0.2 mph 2.3 mph 49% 0.00 in
10:52 71.2 °F 50.5 °F 30.26 in NW 1.4 mph 3.4 mph 48% 0.00 in
10:57 70.9 °F 51.3 °F 30.26 in NNE 0.9 mph 3.4 mph 50% 0.00 in
11:02 71.6 °F 50.9 °F 30.26 in NNE 1.7 mph 2.3 mph 48% 0.00 in
11:07 72.3 °F 50.9 °F 30.26 in WNW 1.7 mph 3.4 mph 47% 0.00 in
11:12 72.7 °F 51.3 °F 30.26 in SW 1.1 mph 2.3 mph 47% 0.00 in
11:17 73.1 °F 51.1 °F 30.26 in South 1.7 mph 2.3 mph 46% 0.00 in
11:22 72.6 °F 51.2 °F 30.26 in SSE 3.6 mph 4.0 mph 47% 0.00 in
11:27 72.9 °F 49.7 °F 30.26 in North 1.5 mph 3.4 mph 44% 0.00 in
11:32 73.7 °F 49.8 °F 30.26 in NW 2.8 mph 5.0 mph 43% 0.00 in
11:37 73.7 °F 49.8 °F 30.26 in NNW 1.4 mph 2.3 mph 43% 0.00 in
11:42 74.5 °F 49.9 °F 30.26 in North 0.4 mph 2.3 mph 42% 0.00 in
11:47 74.2 °F 50.3 °F 30.26 in NW 1.9 mph 3.0 mph 43% 0.00 in
11:52 73.5 °F 50.9 °F 30.26 in West 1.4 mph 2.3 mph 45% 0.00 in
11:57 73.9 °F 50.6 °F 30.26 in Calm   2.3 mph 44% 0.00 in
12:02 75.3 °F 50.0 °F 30.27 in ESE 0.3 mph 2.3 mph 41% 0.00 in
12:07 76.8 °F 50.0 °F 30.27 in SE 0.3 mph 2.3 mph 39% 0.00 in
12:12 75.6 °F 50.2 °F 30.27 in SW 1.4 mph 3.4 mph 41% 0.00 in
12:17 76.5 °F 48.3 °F 30.27 in NNE 0.9 mph 2.3 mph 37% 0.00 in
12:22 76.1 °F 48.6 °F 30.26 in SSW 2.4 mph 3.4 mph 38% 0.00 in
12:27 76.7 °F 48.5 °F 30.26 in NW 1.5 mph 2.3 mph 37% 0.00 in
12:32 77.1 °F 50.2 °F 30.26 in SE 1.6 mph 2.3 mph 39% 0.00 in
12:37 76.9 °F 49.4 °F 30.26 in ENE 1.0 mph 2.3 mph 38% 0.00 in
12:42 77.2 °F 49.6 °F 30.26 in South 1.6 mph 2.3 mph 38% 0.00 in
12:47 77.8 °F 50.2 °F 30.26 in South 1.2 mph 2.3 mph 38% 0.00 in
12:52 76.7 °F 49.2 °F 30.26 in South 1.5 mph 3.4 mph 38% 0.00 in
12:57 77.8 °F 49.4 °F 30.26 in NE 0.2 mph 1.1 mph 37% 0.00 in
13:02 78.7 °F 49.5 °F 30.26 in SSE 2.6 mph 3.4 mph 36% 0.00 in
13:07 78.4 °F 49.2 °F 30.26 in South 1.6 mph 2.3 mph 36% 0.00 in
13:12 78.8 °F 48.8 °F 30.26 in South 2.5 mph 3.4 mph 35% 0.00 in
13:17 79.0 °F 49.0 °F 30.27 in NW 0.9 mph 2.3 mph 35% 0.00 in
13:22 78.6 °F 49.4 °F 30.26 in South 1.3 mph 2.3 mph 36% 0.00 in
13:27 79.3 °F 48.5 °F 30.27 in North 1.4 mph 2.3 mph 34% 0.00 in
13:32 80.2 °F 49.3 °F 30.26 in NW 3.0 mph 5.0 mph 34% 0.00 in
13:37 80.4 °F 48.7 °F 30.26 in North 2.8 mph 4.0 mph 33% 0.00 in
13:42 80.4 °F 49.5 °F 30.26 in East 1.2 mph 3.4 mph 34% 0.00 in
13:47 80.4 °F 48.7 °F 30.26 in ENE 1.3 mph 2.3 mph 33% 0.00 in
13:52 80.6 °F 48.8 °F 30.26 in South 1.2 mph 3.4 mph 33% 0.00 in
13:57 80.9 °F 49.1 °F 30.26 in SW 0.1 mph 2.3 mph 33% 0.00 in
14:02 81.9 °F 50.0 °F 30.26 in Calm   1.1 mph 33% 0.00 in
14:07 82.7 °F 49.8 °F 30.26 in SW 0.1 mph 2.3 mph 32% 0.00 in
14:12 81.9 °F 49.1 °F 30.26 in North 2.1 mph 3.0 mph 32% 0.00 in
14:17 79.9 °F 49.0 °F 30.26 in NW 3.0 mph 5.8 mph 34% 0.00 in
14:22 80.3 °F 48.6 °F 30.26 in North 3.2 mph 4.0 mph 33% 0.00 in
14:27 80.4 °F 48.7 °F 30.26 in NNW 1.5 mph 3.4 mph 33% 0.00 in
14:32 80.8 °F 47.3 °F 30.26 in SW 0.9 mph 3.4 mph 31% 0.00 in
14:37 81.8 °F 46.4 °F 30.26 in ENE 1.1 mph 2.3 mph 29% 0.00 in
14:42 82.1 °F 45.8 °F 30.26 in ENE 1.8 mph 3.4 mph 28% 0.00 in
14:47 80.7 °F 46.4 °F 30.25 in ESE 1.2 mph 3.4 mph 30% 0.00 in
14:52 81.7 °F 46.3 °F 30.26 in North 1.5 mph 3.4 mph 29% 0.00 in
14:57 81.8 °F 45.5 °F 30.25 in North 1.2 mph 2.3 mph 28% 0.00 in
15:02 80.9 °F 46.6 °F 30.26 in SSE 1.3 mph 2.3 mph 30% 0.00 in
15:07 81.8 °F 47.3 °F 30.25 in East 0.7 mph 2.3 mph 30% 0.00 in
15:12 80.9 °F 47.4 °F 30.25 in SE 2.7 mph 6.0 mph 31% 0.00 in
15:17 80.2 °F 45.9 °F 30.25 in SSE 2.8 mph 4.6 mph 30% 0.00 in
15:22 80.6 °F 46.3 °F 30.25 in NNE 0.8 mph 2.3 mph 30% 0.00 in
15:27 81.4 °F 46.1 °F 30.25 in ESE 1.2 mph 2.3 mph 29% 0.00 in
15:32 80.6 °F 47.2 °F 30.26 in SE 3.7 mph 9.2 mph 31% 0.00 in
15:37 78.6 °F 46.3 °F 30.26 in South 2.2 mph 6.9 mph 32% 0.00 in
15:42 78.2 °F 45.9 °F 30.26 in East 1.8 mph 3.4 mph 32% 0.00 in
15:47 78.3 °F 46.0 °F 30.27 in East 1.3 mph 4.6 mph 32% 0.00 in
15:52 78.3 °F 46.0 °F 30.27 in NE 1.3 mph 4.6 mph 32% 0.00 in
15:57 76.1 °F 44.1 °F 30.27 in ESE 3.0 mph 5.8 mph 32% 0.00 in
16:02 74.8 °F 44.5 °F 30.27 in SSE 1.2 mph 3.4 mph 34% 0.00 in
16:07 73.8 °F 44.4 °F 30.27 in ESE 2.0 mph 3.4 mph 35% 0.00 in
16:12 73.3 °F 44.7 °F 30.27 in NE 2.0 mph 3.4 mph 36% 0.00 in
16:17 72.9 °F 44.4 °F 30.27 in SE 2.9 mph 6.9 mph 36% 0.00 in
16:22 73.1 °F 44.5 °F 30.27 in SE 2.4 mph 3.4 mph 36% 0.00 in
16:27 71.7 °F 44.7 °F 30.27 in NE 1.6 mph 5.8 mph 38% 0.00 in
16:32 70.9 °F 44.7 °F 30.27 in ESE 2.5 mph 3.4 mph 39% 0.00 in
16:37 70.0 °F 45.2 °F 30.27 in SSE 1.5 mph 3.4 mph 41% 0.00 in
16:42 69.5 °F 44.1 °F 30.27 in NNE 3.0 mph 3.4 mph 40% 0.00 in
16:47 69.5 °F 44.8 °F 30.27 in ESE 2.7 mph 5.8 mph 41% 0.00 in
16:52 69.1 °F 44.4 °F 30.27 in NE 1.8 mph 3.4 mph 41% 0.00 in
16:57 68.9 °F 44.9 °F 30.27 in ESE 0.8 mph 2.3 mph 42% 0.00 in
17:02 68.3 °F 44.3 °F 30.27 in ESE 3.9 mph 6.9 mph 42% 0.00 in
17:07 67.5 °F 44.8 °F 30.27 in SE 4.3 mph 6.9 mph 44% 0.00 in
17:12 66.5 °F 44.5 °F 30.27 in ENE 2.6 mph 6.9 mph 45% 0.00 in
17:17 66.4 °F 44.4 °F 30.27 in East 1.5 mph 5.8 mph 45% 0.00 in
17:22 65.7 °F 44.3 °F 30.27 in ESE 3.6 mph 11.0 mph 46% 0.00 in
17:27 65.3 °F 44.0 °F 30.28 in ESE 1.2 mph 6.0 mph 46% 0.00 in
17:32 65.1 °F 43.8 °F 30.28 in SE 2.0 mph 4.6 mph 46% 0.00 in
17:37 64.9 °F 44.2 °F 30.28 in East 2.2 mph 5.8 mph 47% 0.00 in
17:42 64.7 °F 44.0 °F 30.28 in NE 2.1 mph 5.8 mph 47% 0.00 in
17:47 64.4 °F 43.7 °F 30.28 in NNE 2.7 mph 5.0 mph 47% 0.00 in
18:00 63.6 °F 44.1 °F 30.27 in ENE 2.3 mph 2.3 mph 49% 0.00 in
18:05 63.4 °F 43.9 °F 30.27 in ENE 0.9 mph 2.3 mph 49% 0.00 in
18:10 63.2 °F 44.8 °F 30.27 in ENE 1.6 mph 2.3 mph 51% 0.00 in
18:15 62.9 °F 44.0 °F 30.27 in North 0.9 mph 2.3 mph 50% 0.00 in
18:20 62.7 °F 44.3 °F 30.27 in NE 0.9 mph 3.4 mph 51% 0.00 in
18:25 62.3 °F 44.4 °F 30.27 in ENE 2.1 mph 2.3 mph 52% 0.00 in
18:30 61.7 °F 44.9 °F 30.27 in NNE 0.8 mph 2.3 mph 54% 0.00 in
18:35 61.3 °F 44.5 °F 30.27 in East 0.4 mph 2.3 mph 54% 0.00 in
18:40 60.6 °F 44.8 °F 30.27 in ENE 2.1 mph 4.6 mph 56% 0.00 in
18:45 59.9 °F 45.1 °F 30.27 in NNE 2.1 mph 3.4 mph 58% 0.00 in
18:50 59.3 °F 45.4 °F 30.27 in NNE 1.5 mph 2.3 mph 60% 0.00 in
18:55 58.6 °F 45.6 °F 30.28 in East 2.0 mph 3.4 mph 62% 0.00 in
19:00 58.1 °F 45.6 °F 30.28 in NE 0.8 mph 3.4 mph 63% 0.00 in
19:05 57.6 °F 45.5 °F 30.28 in ENE 0.1 mph 2.3 mph 64% 0.00 in
19:10 57.2 °F 45.5 °F 30.28 in ESE 0.8 mph 2.3 mph 65% 0.00 in
19:15 56.7 °F 45.5 °F 30.28 in NE 1.7 mph 2.3 mph 66% 0.00 in
19:20 55.9 °F 45.5 °F 30.28 in NNE 1.6 mph 2.3 mph 68% 0.00 in
19:25 55.5 °F 45.5 °F 30.29 in ENE 0.8 mph 2.3 mph 69% 0.00 in
19:30 55.0 °F 45.4 °F 30.28 in East 0.2 mph 2.3 mph 70% 0.00 in
19:35 54.5 °F 45.7 °F 30.28 in ESE 0.5 mph 1.1 mph 72% 0.00 in
19:40 54.1 °F 45.3 °F 30.28 in ENE 0.8 mph 2.0 mph 72% 0.00 in
19:45 53.6 °F 45.5 °F 30.28 in ENE 1.1 mph 2.3 mph 74% 0.00 in
19:50 53.3 °F 45.6 °F 30.28 in ENE 0.4 mph 1.1 mph 75% 0.00 in
19:55 52.9 °F 45.5 °F 30.29 in SE 1.6 mph 2.3 mph 76% 0.00 in
20:00 52.5 °F 45.5 °F 30.29 in SE 0.6 mph 2.0 mph 77% 0.00 in
20:05 52.1 °F 45.4 °F 30.29 in Calm     78% 0.00 in
20:10 51.7 °F 45.4 °F 30.28 in Calm     79% 0.00 in
20:15 51.3 °F 45.0 °F 30.29 in Calm     79% 0.00 in
20:20 50.9 °F 44.9 °F 30.29 in Calm     80% 0.00 in
20:25 50.8 °F 45.5 °F 30.29 in Calm     82% 0.00 in
20:30 50.7 °F 45.4 °F 30.29 in North 1.4 mph 2.3 mph 82% 0.00 in
20:35 50.5 °F 45.2 °F 30.29 in North 1.2 mph 2.3 mph 82% 0.00 in
20:40 50.4 °F 45.1 °F 30.29 in NNW 1.6 mph 2.3 mph 82% 0.00 in
20:45 50.3 °F 45.3 °F 30.29 in NNW 1.7 mph 2.3 mph 83% 0.00 in
20:50 49.9 °F 45.3 °F 30.29 in NNW 1.5 mph 2.3 mph 84% 0.00 in
20:55 49.7 °F 45.4 °F 30.29 in NNW 1.2 mph 2.3 mph 85% 0.00 in
21:00 49.6 °F 45.3 °F 30.29 in NNW 0.5 mph 1.1 mph 85% 0.00 in
21:05 49.4 °F 45.1 °F 30.30 in Calm     85% 0.00 in
21:10 49.2 °F 45.2 °F 30.30 in Calm     86% 0.00 in
21:15 48.8 °F 44.8 °F 30.30 in Calm     86% 0.00 in
21:20 48.5 °F 45.1 °F 30.30 in Calm   1.1 mph 88% 0.00 in
21:25 48.3 °F 45.2 °F 30.30 in Calm     89% 0.00 in
21:30 48.1 °F 45.0 °F 30.30 in Calm     89% 0.00 in
21:35 47.9 °F 45.1 °F 30.30 in Calm     90% 0.00 in
21:40 47.9 °F 45.4 °F 30.30 in Calm     91% 0.00 in
21:45 47.8 °F 45.6 °F 30.30 in Calm     92% 0.00 in
21:50 47.7 °F 45.5 °F 30.30 in Calm     92% 0.00 in
21:55 47.7 °F 45.5 °F 30.30 in Calm     92% 0.00 in
22:00 47.6 °F 45.1 °F 30.30 in Calm     91% 0.00 in
22:05 47.4 °F 45.2 °F 30.30 in Calm     92% 0.00 in
22:10 47.3 °F 45.1 °F 30.30 in Calm     92% 0.00 in
22:15 46.9 °F 45.0 °F 30.30 in Calm     93% 0.00 in
22:20 46.8 °F 45.2 °F 30.30 in Calm   1.1 mph 94% 0.00 in
22:25 46.7 °F 45.1 °F 30.30 in NNW 0.5 mph 2.3 mph 94% 0.00 in
22:30 46.8 °F 45.4 °F 30.30 in Calm   1.1 mph 95% 0.00 in
22:35 46.8 °F 45.2 °F 30.31 in Calm     94% 0.00 in
22:40 46.8 °F 45.2 °F 30.31 in Calm     94% 0.00 in
22:45 46.5 °F 45.1 °F 30.31 in Calm     95% 0.00 in
22:50 46.1 °F 45.0 °F 30.31 in Calm     96% 0.00 in
22:55 46.0 °F 45.2 °F 30.31 in Calm     97% 0.00 in
23:00 45.8 °F 44.7 °F 30.30 in Calm     96% 0.00 in
23:05 45.4 °F 44.6 °F 30.30 in Calm     97% 0.00 in
23:10 45.3 °F 44.5 °F 30.30 in Calm     97% 0.00 in
23:15 45.1 °F 44.3 °F 30.31 in Calm     97% 0.00 in
23:20 44.9 °F 43.8 °F 30.31 in Calm     96% 0.00 in
23:25 44.9 °F 43.8 °F 30.31 in Calm     96% 0.00 in
23:30 44.8 °F 43.7 °F 30.31 in NNW 0.6 mph 1.1 mph 96% 0.00 in
23:35 44.7 °F 43.6 °F 30.31 in Calm     96% 0.00 in
23:40 44.5 °F 43.4 °F 30.31 in Calm     96% 0.00 in
23:45 44.4 °F 43.3 °F 30.31 in Calm     96% 0.00 in
23:50 44.3 °F 43.2 °F 30.31 in Calm     96% 0.00 in
23:55 44.1 °F 43.0 °F 30.31 in Calm     96% 0.00 in
Medfield, Massachusetts, USA
Compliments of Weather Underground